createdAt,value
2018-05-07T14:45:54.418Z,23.50
2018-05-07T14:49:57.702Z,23.60
2018-05-07T14:54:00.230Z,23.50
2018-05-07T14:58:04.763Z,23.70
2018-05-07T15:02:07.348Z,23.70
2018-05-07T15:06:13.443Z,23.70
2018-05-07T15:10:15.987Z,23.80
2018-05-07T15:14:23.182Z,23.80
2018-05-07T15:18:28.875Z,23.90
2018-05-07T15:22:31.402Z,23.80
2018-05-07T15:26:35.039Z,23.70
2018-05-07T15:30:38.331Z,23.70
2018-05-07T15:34:40.882Z,23.70
2018-05-07T15:38:43.426Z,23.80
2018-05-07T15:42:45.964Z,23.70
2018-05-07T15:46:48.533Z,23.80
2018-05-07T15:51:04.222Z,23.90
2018-05-07T15:55:06.734Z,23.90
2018-05-07T15:59:09.387Z,23.80
2018-05-07T16:03:11.988Z,23.70
2018-05-07T16:07:20.690Z,23.60
2018-05-07T16:11:23.243Z,23.50
2018-05-07T16:15:25.900Z,23.50
2018-05-07T16:19:28.359Z,23.50
2018-05-07T16:23:35.168Z,23.50
2018-05-07T16:27:37.412Z,23.40
2018-05-07T16:31:39.970Z,23.50
2018-05-07T16:35:42.537Z,23.40
2018-05-07T16:39:45.827Z,23.40
2018-05-07T16:43:49.110Z,23.20
2018-05-07T16:48:04.548Z,23.20
2018-05-07T16:52:07.832Z,23.20
2018-05-07T16:56:11.377Z,23.10
2018-05-07T17:00:13.914Z,23.10
2018-05-07T17:04:17.238Z,23.00
2018-05-07T17:08:20.573Z,22.90
2018-05-07T17:12:23.175Z,22.90
2018-05-07T17:16:26.467Z,22.80
2018-05-07T17:20:31.335Z,22.80
2018-05-07T17:24:34.869Z,22.80
2018-05-07T17:28:42.968Z,22.70
2018-05-07T17:32:47.552Z,22.70
2018-05-07T17:36:51.258Z,22.60
2018-05-07T17:40:53.809Z,22.60
2018-05-07T17:45:10.967Z,22.50
2018-05-07T17:49:24.946Z,22.40
2018-05-07T17:53:27.727Z,22.50
2018-05-07T17:57:30.235Z,22.50
2018-05-07T18:01:32.783Z,22.40
2018-05-07T18:05:35.296Z,22.30
2018-05-07T18:09:39.802Z,22.30
2018-05-07T18:13:43.092Z,22.00
2018-05-07T18:17:45.775Z,22.00
2018-05-07T18:21:49.088Z,21.80
2018-05-07T18:25:55.643Z,21.80
2018-05-07T18:30:00.167Z,21.80
2018-05-07T18:34:02.734Z,21.60
2018-05-07T18:38:06.263Z,21.60
2018-05-07T18:42:08.783Z,21.50
2018-05-07T18:46:11.399Z,21.40
2018-05-07T18:50:13.973Z,21.30
2018-05-07T18:54:18.310Z,21.20
2018-05-07T18:58:22.634Z,21.10
2018-05-07T19:02:25.193Z,21.10
2018-05-07T19:06:27.751Z,21.00
2018-05-07T19:10:32.313Z,20.90
2018-05-07T19:14:35.732Z,20.70
2018-05-07T19:18:39.243Z,20.70
2018-05-07T19:22:44.290Z,20.60
2018-05-07T19:26:52.947Z,20.60
2018-05-07T19:30:55.498Z,20.40
2018-05-07T19:35:00.735Z,20.30
2018-05-07T19:39:09.492Z,20.30
2018-05-07T19:43:12.034Z,20.30
2018-05-07T19:47:14.811Z,20.30
2018-05-07T19:51:26.282Z,20.20
2018-05-07T19:55:28.969Z,20.10
2018-05-07T19:59:32.255Z,20.00
2018-05-07T20:03:34.980Z,20.00
2018-05-07T20:07:37.552Z,19.90
2018-05-07T20:11:40.110Z,19.90
2018-05-07T20:15:43.411Z,19.80
2018-05-07T20:19:45.989Z,19.70
2018-05-07T20:23:48.595Z,19.80
2018-05-07T20:27:51.243Z,19.70
2018-05-07T20:31:53.837Z,19.70
2018-05-07T20:35:56.480Z,19.60
2018-05-07T20:40:02.186Z,19.50
2018-05-07T20:44:04.735Z,19.50
2018-05-07T20:48:07.378Z,19.40
2018-05-07T20:52:09.908Z,19.40
2018-05-07T20:56:12.581Z,19.40
2018-05-07T21:00:15.184Z,19.30
2018-05-07T21:04:17.719Z,19.20
2018-05-07T21:08:20.928Z,19.20
2018-05-07T21:12:23.449Z,19.10
2018-05-07T21:16:26.026Z,19.00
2018-05-07T21:20:29.302Z,18.90
2018-05-07T21:24:31.948Z,18.90
2018-05-07T21:28:35.223Z,18.80
2018-05-07T21:32:37.770Z,18.80
2018-05-07T21:36:41.058Z,18.80
2018-05-07T21:40:44.006Z,18.70
2018-05-07T21:44:46.605Z,18.70
2018-05-07T21:48:49.239Z,18.60
2018-05-07T21:52:52.523Z,18.50
2018-05-07T21:56:55.270Z,18.50
2018-05-07T22:00:59.555Z,18.40
2018-05-07T22:05:02.103Z,18.40
2018-05-07T22:09:05.583Z,18.40
2018-05-07T22:13:08.573Z,18.40
2018-05-07T22:17:11.126Z,18.30
2018-05-07T22:21:13.671Z,18.20
2018-05-07T22:25:16.956Z,18.10
2018-05-07T22:29:19.606Z,18.00
2018-05-07T22:33:22.895Z,17.90
2018-05-07T22:37:25.444Z,17.80
2018-05-07T22:41:27.960Z,17.80
2018-05-07T22:45:30.558Z,17.80
2018-05-07T22:49:33.074Z,17.60
2018-05-07T22:53:35.628Z,17.60
2018-05-07T22:57:44.650Z,17.40
2018-05-07T23:01:47.195Z,17.40
2018-05-07T23:05:49.720Z,17.40
2018-05-07T23:09:53.027Z,17.40
2018-05-07T23:13:55.534Z,17.30
2018-05-07T23:17:58.086Z,17.30
2018-05-07T23:22:00.600Z,17.20
2018-05-07T23:26:03.170Z,17.20
2018-05-07T23:30:06.450Z,17.00
2018-05-07T23:34:09.111Z,16.90
2018-05-07T23:38:11.663Z,16.80
2018-05-07T23:42:14.206Z,16.80
2018-05-07T23:46:17.548Z,16.10
2018-05-07T23:50:20.087Z,16.00
2018-05-07T23:54:22.611Z,15.90
2018-05-07T23:58:25.162Z,15.80
